Timeline UpdatesTrip UpdatesNews PostsPvt PostsTravel TipsAdmin PostsConv PostsFollowed PostsChat RequestsBlog PostsPNR Posts

Disclaimer
Search
 
 
Wed Jul 23, 2014 00:50:35 ISTHomeTrainsΣChainsAtlasPNRForumGalleryNewsFAQTripsMembersLoginFeedback
No Recent News for this Train
Other Trains in the News **new
Latest...
Experimental Stop provided at Pudukkad.
Fri Feb 21, 2014 (07:40PM)
⇐ Return Journey: Train# 16650

16649/Parashuram Express

Feb 21 2014 (7:39PM)
Change Departure Station:
Change Arrival Station:
Post a Train Travel TipPost a Train Travel Tip **new
Post a Comment/Question/Picture/VideoPost a Comment/Question/Picture/Video
Pantry/Catering
✓ Pantry Car Avbl
✓ Catering Avbl
RSA - Rake Sharing
Rake/Coach Composition
Loco SLR GS GS GS GS GS GS GS GS GS PC D1 C1 C2 F1 GS GS GS GS SLR
Loco
MAQ-SRR :ERS WDM 3A/ED WDM 3A/D SRR-NCJ: ED/RPM WAP 4
News    PNR    Forum    Time-Table    Availability    Fare Chart    Map    Arr/Dep History    Trips    Gallery    ΣChains    X/O    Timeline    
Travel Time: 3h 32m    12 halts    Distance: 160 km    Avg Speed: 45 km/hr
Type: Mail/Express
Zone: SR/Southern
Departs @ 14:53
Platform# 1
SMTWTFS
Kottayam/KTYM 
Arrives @ 18:25
Platform# 5
SMTWTFS
Trivandrum Central/TVC 

12 halts. 29 intermediate Stations between Kottayam and Trivandrum Central

Show ALL intermediate Stations  Show Old Time-Table

#CodeStation NameX/OArrivesAvgDepartsAvgHaltPFDay#KmSpeedElevZoneAddress
1MAQMangalore Central (4)  -04:50-11-471.56114mSRMangalore 575001, Karnataka
2KGQKasaragod (3)  05:35-05:36-1m--1-425.86918mSRTel: 04994 220800, Kerala
3KZEKanhangad (3)  05:56-05:57-1m--1-402.65615mSRKanhangad, Kerala
4NLENileshwar (2)X  06:07-06:08-1m--1-393.46012mSRNileswaram, Kerala
5PAYPayyanur (3)  06:28-06:29-1m--1-373.3640mSRKannur District, Kerala
6PAZPayangadi (2)  06:40-06:41-1m21-361.76412mSRKannur District, Kerala
7KPQKannapuram (2)X  06:48-06:49-1m21-354.2339mSRKannur District, Kerala
8CANKannur Main (3)  07:15-07:20-5m31-339.76514mSRKannur Tel: 0497 2705555, Kerala
9TLYThalassery (2)  07:39-07:40-1m--1-319.0629mSRKannur, Kerala
10MAHEMahe (2)  07:49-07:50-1m--1-309.86416mSRMahe, Puducherry
11BDJVadakara (2)X  08:02-08:03-1m11-296.98211mSRCalicut / Station Ph No : 0496-2524254, Kerala
12QLDKoyilandy (3)  08:19-08:20-1m--1-275.03611mSRQuilandi, Kerala
13CLTKozhikode Main (4)X  09:00-09:05-5m31-250.74311mSRCalicut Tel: 0495 2701234, Kerala
14FKFerok (2)X  09:19-09:20-1m--1-240.75119mSRFeroke, Kerala
15VLIVallikunnu (2)  09:32-09:33-1m--1-230.54313mSRVallikkunnu, Kerala
16PGIParappangadi (2)  09:40-09:41-1m--1-225.56119mSRParappanangadi, Kerala
17TATanur (3)X  09:49-09:50-1m--1-217.45311mSRMalappuram, Kerala
18TIRTirur (3)  09:59-10:00-1m21-209.4489mSRTel: 0494 2422240, Kerala
19KTUKuttippuram (2)  10:19-10:20-1m21-194.47917mSRKuttippuram, Kerala
20PTBPattambi (2)X  10:34-10:35-1m21-175.92021mSRPattambi, Kerala
21SRRShoranur Junction (7)XO11:10-11:15-5m61-164.35226mSRShoranur ph.no 0466-2222913, Kerala
22WKIWadakkanchery (2)  11:34-11:35-1m11-147.85840mSRWadackanchery, Kerala
23TCRThrissur (4)X  11:52-11:54-2m11-131.4586mSRThrissur Tel: 0487 2423150, Kerala
24PUKPudukkad (2)X  12:08-12:09-1m--1-117.96111mSRPudukad, Kerala
25IJKIrinjalakkuda (2)  12:19-12:20-1m21-107.74818mSRKalletumkara, Kerala
26CKIChalakkudy (3)  12:28-12:29-1m11-101.2339mSRPh: 0480- 2701368, Kerala
27DINRDivine Nagar (2)X  12:33-12:34-1m11-99.07816mSRThrissur, Kerala
28AFKAngamaly for Kalady (3)  12:44-12:45-1m21-86.03716mSRPhone: 0484-2452340, Kerala
29AWYAluva (3)X  13:00-13:02-2m11-76.83112mSRPh: 0484-2624141, Kerala
30ERNErnakulam Town (North) (2)  13:35-13:40-5m21-60.0399mSRTel: 0484 2395198, Kerala
31TRTRThrippunithura (2)13:55-13:56-1m--1-50.3645mSRErnakulam, Kerala
32PVRDPiravom Road  14:14-14:15-1m11-31.26512mSRKottayam, Kerala
33ETMEttumanur (1)  14:34-14:35-1m11-10.64228mSRKottayam, Kerala
34KTYM»Kottayam (3)»  14:50-14:53-3m110.06715mSRTel: 0481 2563535, Kerala
35CGYChanganassery (3)X  15:09-15:10-1m2117.85211mSRPh: 0481- 2420108, Kerala
36TRVLTiruvalla (2)X  15:19-15:20-1m1125.73927mSRPh: 0469-2601314, Kerala
37CNGRChengannur (3)  15:34-15:35-1m1134.8546mSRPh: 0479-2452340, Kerala
38MVLKMavelikara (3)X  15:49-15:50-1m3147.34613mSRMavelikkara Ph: 0479-2302249, Kerala
39KYJKayamkulam Junction (5)  16:00-16:02-2m4155.06311mSRAlappuzha Ph;0479-2442042, Kerala
40KPYKarunagappalli (2)X  16:15-16:16-1m2168.75712mSRKollam Dist, Kerala
41STKTSasthamkotta (2)  16:24-16:25-1m1176.3290mSRKollam Dist, Kerala
42QLNKollam Junction (6)X  17:05-17:10-5m1195.87416mSRKollam 0474-2746194, Kerala
43PVUParavur (3)17:20-17:21-1m--1108.28418mSRParavoor, Kerala
44VAKVarkala Sivagiri (3)X  17:29-17:30-1m21119.47252mSREdava Kappil Road, Kerala
45KZKKazhakkuttam (3)X17:53-17:54-1m--1147.16620mSRKulathoor ► Kazhakootam Road Kazhakootam PO Thiruvananthapuram, Kerala
46TVPThiruvananthapuram Pettah (2)  18:04-18:05-1m11158.0718mSRTrivandrum Ph: 04712470181, Kerala
47TVC•Trivandrum Central (5)•X  18:25-18:35-10m51160.45412mSRThiruvananthapuram 695001, Kerala
48NYYNeyyattinkara  18:54-18:55-1m--1177.67311mSRThiruvananthapuram, Kerala
49PASAParassalaX  19:04-19:05-1m--1188.53145mSRParassala, Kerala
50KZTKulitturai  19:24-19:25-1m--1198.44729mSRMarthandam, Tamil Nadu
51ERLEraniel  19:44-19:45-1m--1213.22219mSRKanyakumari, Tamil Nadu
52NCJNagercoil Junction (4)  20:35----1231.5-22mSRNagercoil-629002, Tamil Nadu
Scroll to Top
Scroll to Bottom